Time,TemperatureF,DewpointF,PressureIn,WindDirection,WindDirectionDegrees,WindSpeedMPH,WindSpeedGustMPH,Humidity,HourlyPrecipIn,Conditions,Clouds,dailyrainin,SoftwareType,DateUTC
2013-06-21 00:00:00,63.9,56.5,30.16,SE,135,0.0,6.0,77,0.00,,,-99.99,Weather View 32 v60,2013-06-21 04:00:00,
2013-06-21 00:04:00,63.8,56.4,30.16,South,180,1.0,5.0,77,0.00,,,-99.99,Weather View 32 v60,2013-06-21 04:04:00,
2013-06-21 00:10:00,63.6,56.2,30.16,South,180,1.0,5.0,77,0.00,,,-99.99,Weather View 32 v60,2013-06-21 04:10:00,
2013-06-21 00:19:00,63.4,56.4,30.16,South,180,2.0,4.0,78,0.00,,,-99.99,Weather View 32 v60,2013-06-21 04:19:00,
2013-06-21 00:25:00,63.3,56.3,30.16,South,180,1.0,4.0,78,0.00,,,-99.99,Weather View 32 v60,2013-06-21 04:25:00,
2013-06-21 00:30:00,63.1,56.1,30.16,South,180,1.0,4.0,78,0.00,,,-99.99,Weather View 32 v60,2013-06-21 04:30:00,
2013-06-21 00:35:00,63.0,56.4,30.16,South,180,1.0,4.0,79,0.00,,,-99.99,Weather View 32 v60,2013-06-21 04:35:00,
2013-06-21 00:39:00,62.9,56.3,30.16,South,180,1.0,4.0,79,0.00,,,-99.99,Weather View 32 v60,2013-06-21 04:39:00,
2013-06-21 00:45:00,62.8,56.2,30.16,South,180,1.0,4.0,79,0.00,,,-99.99,Weather View 32 v60,2013-06-21 04:45:00,
2013-06-21 00:55:00,62.6,56.3,30.16,South,180,2.0,4.0,80,0.00,,,-99.99,Weather View 32 v60,2013-06-21 04:55:00,
2013-06-21 01:04:00,62.4,56.5,30.15,SSE,158,1.0,5.0,81,0.00,,,-99.99,Weather View 32 v60,2013-06-21 05:04:00,
2013-06-21 01:10:00,62.3,56.4,30.15,SE,135,2.0,5.0,81,0.00,,,-99.99,Weather View 32 v60,2013-06-21 05:10:00,
2013-06-21 01:15:00,62.2,56.3,30.15,SSE,158,1.0,6.0,81,0.00,,,-99.99,Weather View 32 v60,2013-06-21 05:15:00,
2013-06-21 01:25:00,62.0,56.1,30.15,East,90,1.0,6.0,81,0.00,,,-99.99,Weather View 32 v60,2013-06-21 05:25:00,
2013-06-21 01:31:00,61.9,56.0,30.16,SSE,158,3.0,6.0,81,0.00,,,-99.99,Weather View 32 v60,2013-06-21 05:31:00,
2013-06-21 01:40:00,61.8,56.2,30.16,SE,135,2.0,6.0,82,0.00,,,-99.99,Weather View 32 v60,2013-06-21 05:40:00,
2013-06-21 01:50:00,61.6,56.0,30.16,SSE,158,1.0,6.0,82,0.00,,,-99.99,Weather View 32 v60,2013-06-21 05:50:00,
2013-06-21 02:00:00,61.4,55.8,30.16,South,180,1.0,6.0,82,0.00,,,-99.99,Weather View 32 v60,2013-06-21 06:00:00,
2013-06-21 02:10:00,61.2,55.6,30.16,SSE,158,1.0,6.0,82,0.00,,,-99.99,Weather View 32 v60,2013-06-21 06:10:00,
2013-06-21 02:15:00,61.1,55.5,30.16,South,180,1.0,4.0,82,0.00,,,-99.99,Weather View 32 v60,2013-06-21 06:15:00,
2013-06-21 02:25:00,60.8,55.6,30.16,SE,135,1.0,6.0,83,0.00,,,-99.99,Weather View 32 v60,2013-06-21 06:25:00,
2013-06-21 02:31:00,60.8,55.6,30.15,SE,135,2.0,6.0,83,0.00,,,-99.99,Weather View 32 v60,2013-06-21 06:31:00,
2013-06-21 02:40:00,60.5,55.3,30.14,South,180,1.0,6.0,83,0.00,,,-99.99,Weather View 32 v60,2013-06-21 06:40:00,
2013-06-21 02:49:00,60.3,55.1,30.14,South,180,1.0,6.0,83,0.00,,,-99.99,Weather View 32 v60,2013-06-21 06:49:00,
2013-06-21 02:55:00,60.2,55.0,30.14,SSE,158,1.0,6.0,83,0.00,,,-99.99,Weather View 32 v60,2013-06-21 06:55:00,
2013-06-21 03:00:00,60.1,55.2,30.15,ESE,113,1.0,6.0,84,0.00,,,-99.99,Weather View 32 v60,2013-06-21 07:00:00,
2013-06-21 03:09:00,59.9,55.0,30.15,SSE,158,0.0,6.0,84,0.00,,,-99.99,Weather View 32 v60,2013-06-21 07:09:00,
2013-06-21 03:15:00,59.8,54.9,30.15,SE,135,1.0,6.0,84,0.00,,,-99.99,Weather View 32 v60,2013-06-21 07:15:00,
2013-06-21 03:24:00,59.7,54.8,30.15,South,180,3.0,4.0,84,0.00,,,-99.99,Weather View 32 v60,2013-06-21 07:24:00,
2013-06-21 03:30:00,59.6,54.7,30.15,South,180,1.0,4.0,84,0.00,,,-99.99,Weather View 32 v60,2013-06-21 07:30:00,
2013-06-21 03:40:00,59.4,54.6,30.15,South,180,2.0,6.0,84,0.00,,,-99.99,Weather View 32 v60,2013-06-21 07:40:00,
2013-06-21 03:49:00,59.2,54.4,30.15,SSE,158,2.0,6.0,84,0.00,,,-99.99,Weather View 32 v60,2013-06-21 07:49:00,
2013-06-21 03:55:00,59.2,54.4,30.15,South,180,2.0,6.0,84,0.00,,,-99.99,Weather View 32 v60,2013-06-21 07:55:00,
2013-06-21 04:04:00,59.0,54.2,30.15,South,180,1.0,6.0,84,0.00,,,-99.99,Weather View 32 v60,2013-06-21 08:04:00,
2013-06-21 04:10:00,59.0,54.2,30.15,South,180,2.0,6.0,84,0.00,,,-99.99,Weather View 32 v60,2013-06-21 08:10:00,
2013-06-21 04:15:00,58.9,54.1,30.15,SSE,158,3.0,6.0,84,0.00,,,-99.99,Weather View 32 v60,2013-06-21 08:15:00,
2013-06-21 04:25:00,58.8,54.3,30.15,South,180,3.0,6.0,85,0.00,,,-99.99,Weather View 32 v60,2013-06-21 08:25:00,
2013-06-21 04:30:00,58.7,54.2,30.15,South,180,1.0,6.0,85,0.00,,,-99.99,Weather View 32 v60,2013-06-21 08:30:00,
2013-06-21 04:39:00,58.6,54.1,30.15,South,180,1.0,6.0,85,0.00,,,-99.99,Weather View 32 v60,2013-06-21 08:39:00,
2013-06-21 04:45:00,58.5,54.0,30.16,South,180,1.0,6.0,85,0.00,,,-99.99,Weather View 32 v60,2013-06-21 08:45:00,
2013-06-21 04:55:00,58.4,53.9,30.15,South,180,1.0,6.0,85,0.00,,,-99.99,Weather View 32 v60,2013-06-21 08:55:00,
2013-06-21 05:04:00,58.3,54.1,30.16,South,180,1.0,6.0,86,0.00,,,-99.99,Weather View 32 v60,2013-06-21 09:04:00,
2013-06-21 05:10:00,58.3,54.1,30.16,SSE,158,3.0,6.0,86,0.00,,,-99.99,Weather View 32 v60,2013-06-21 09:10:00,
2013-06-21 05:15:00,58.2,54.0,30.16,SSE,158,2.0,6.0,86,0.00,,,-99.99,Weather View 32 v60,2013-06-21 09:15:00,
2013-06-21 05:25:00,58.2,54.0,30.16,SSE,158,0.0,6.0,86,0.00,,,-99.99,Weather View 32 v60,2013-06-21 09:25:00,
2013-06-21 05:33:00,58.1,53.9,30.16,SSE,158,1.0,6.0,86,0.00,,,-99.99,Weather View 32 v60,2013-06-21 09:33:00,
2013-06-21 05:39:00,57.9,54.0,30.16,South,180,0.0,6.0,87,0.00,,,-99.99,Weather View 32 v60,2013-06-21 09:39:00,
2013-06-21 05:45:00,57.8,53.9,30.17,South,180,0.0,6.0,87,0.00,,,-99.99,Weather View 32 v60,2013-06-21 09:45:00,
2013-06-21 05:54:00,57.8,53.9,30.17,South,180,0.0,4.0,87,0.00,,,-99.99,Weather View 32 v60,2013-06-21 09:54:00,
2013-06-21 06:00:00,57.7,54.2,30.17,South,180,1.0,4.0,88,0.00,,,-99.99,Weather View 32 v60,2013-06-21 10:00:00,
2013-06-21 06:10:00,57.7,54.2,30.17,ESE,113,0.0,4.0,88,0.00,,,-99.99,Weather View 32 v60,2013-06-21 10:10:00,
2013-06-21 06:15:00,57.8,54.3,30.17,NNE,23,0.0,4.0,88,0.00,,,-99.99,Weather View 32 v60,2013-06-21 10:15:00,
2013-06-21 06:25:00,57.8,54.6,30.17,SE,135,1.0,4.0,89,0.00,,,-99.99,Weather View 32 v60,2013-06-21 10:25:00,
2013-06-21 06:33:00,57.9,54.7,30.17,SE,135,1.0,4.0,89,0.00,,,-99.99,Weather View 32 v60,2013-06-21 10:33:00,
2013-06-21 06:40:00,58.1,54.9,30.17,South,180,1.0,4.0,89,0.00,,,-99.99,Weather View 32 v60,2013-06-21 10:40:00,
2013-06-21 06:49:00,58.2,55.0,30.17,South,180,1.0,4.0,89,0.00,,,-99.99,Weather View 32 v60,2013-06-21 10:49:00,
2013-06-21 06:55:00,58.4,55.2,30.17,South,180,3.0,4.0,89,0.00,,,-99.99,Weather View 32 v60,2013-06-21 10:55:00,
2013-06-21 07:00:00,58.7,55.8,30.17,South,180,0.0,4.0,90,0.00,,,-99.99,Weather View 32 v60,2013-06-21 11:00:00,
2013-06-21 07:09:00,59.1,55.9,30.17,South,180,2.0,5.0,89,0.00,,,-99.99,Weather View 32 v60,2013-06-21 11:09:00,
2013-06-21 07:15:00,59.4,56.1,30.17,South,180,1.0,6.0,89,0.00,,,-99.99,Weather View 32 v60,2013-06-21 11:15:00,
2013-06-21 07:25:00,59.8,56.2,30.17,SSE,158,1.0,7.0,88,0.00,,,-99.99,Weather View 32 v60,2013-06-21 11:25:00,
2013-06-21 07:34:00,60.0,56.4,30.17,SSE,158,0.0,7.0,88,0.00,,,-99.99,Weather View 32 v60,2013-06-21 11:34:00,
2013-06-21 07:40:00,60.2,56.6,30.17,South,180,0.0,7.0,88,0.00,,,-99.99,Weather View 32 v60,2013-06-21 11:40:00,
2013-06-21 07:45:00,60.3,56.7,30.17,SSE,158,1.0,7.0,88,0.00,,,-99.99,Weather View 32 v60,2013-06-21 11:45:00,
2013-06-21 07:54:00,60.9,57.0,30.16,South,180,0.0,7.0,87,0.00,,,-99.99,Weather View 32 v60,2013-06-21 11:54:00,
2013-06-21 08:00:00,61.2,57.3,30.16,South,180,1.0,7.0,87,0.00,,,-99.99,Weather View 32 v60,2013-06-21 12:00:00,
2013-06-21 08:05:00,61.5,57.6,30.16,South,180,5.0,7.0,87,0.00,,,-99.99,Weather View 32 v60,2013-06-21 12:05:00,
2013-06-21 08:15:00,62.2,57.9,30.16,NNE,23,2.0,7.0,86,0.00,,,-99.99,Weather View 32 v60,2013-06-21 12:15:00,
2013-06-21 08:24:00,62.9,58.3,30.16,SSE,158,1.0,7.0,85,0.00,,,-99.99,Weather View 32 v60,2013-06-21 12:24:00,
2013-06-21 08:30:00,63.3,58.7,30.17,South,180,1.0,7.0,85,0.00,,,-99.99,Weather View 32 v60,2013-06-21 12:30:00,
2013-06-21 08:40:00,63.9,59.0,30.17,SSE,158,0.0,7.0,84,0.00,,,-99.99,Weather View 32 v60,2013-06-21 12:40:00,
2013-06-21 08:49:00,64.8,59.5,30.17,SE,135,1.0,7.0,83,0.00,,,-99.99,Weather View 32 v60,2013-06-21 12:49:00,
2013-06-21 08:55:00,65.2,59.9,30.17,NNE,23,1.0,7.0,83,0.00,,,-99.99,Weather View 32 v60,2013-06-21 12:55:00,
2013-06-21 09:04:00,66.4,60.7,30.16,South,180,0.0,7.0,82,0.00,,,-99.99,Weather View 32 v60,2013-06-21 13:04:00,
2013-06-21 09:10:00,67.0,61.0,30.16,South,180,2.0,7.0,81,0.00,,,-99.99,Weather View 32 v60,2013-06-21 13:10:00,
2013-06-21 09:15:00,67.6,61.2,30.16,South,180,3.0,7.0,80,0.00,,,-99.99,Weather View 32 v60,2013-06-21 13:15:00,
2013-06-21 09:25:00,69.1,61.6,30.16,South,180,2.0,6.0,77,0.00,,,-99.99,Weather View 32 v60,2013-06-21 13:25:00,
2013-06-21 09:30:00,69.8,61.9,30.16,South,180,1.0,6.0,76,0.00,,,-99.99,Weather View 32 v60,2013-06-21 13:30:00,
2013-06-21 09:35:00,70.3,61.6,30.16,South,180,1.0,6.0,74,0.00,,,-99.99,Weather View 32 v60,2013-06-21 13:35:00,
2013-06-21 09:45:00,71.4,61.9,30.16,SSE,158,1.0,6.0,72,0.00,,,-99.99,Weather View 32 v60,2013-06-21 13:45:00,
2013-06-21 09:55:00,72.4,62.0,30.16,NE,45,2.0,6.0,70,0.00,,,-99.99,Weather View 32 v60,2013-06-21 13:55:00,
2013-06-21 10:05:00,72.7,61.9,30.16,East,90,2.0,6.0,69,0.00,,,-99.99,Weather View 32 v60,2013-06-21 14:05:00,
2013-06-21 10:15:00,72.9,62.1,30.17,ENE,68,3.0,6.0,69,0.00,,,-99.99,Weather View 32 v60,2013-06-21 14:15:00,
2013-06-21 10:24:00,73.0,61.8,30.16,NE,45,2.0,5.0,68,0.00,,,-99.99,Weather View 32 v60,2013-06-21 14:24:00,
2013-06-21 10:30:00,73.4,62.2,30.16,SE,135,3.0,5.0,68,0.00,,,-99.99,Weather View 32 v60,2013-06-21 14:30:00,
2013-06-21 10:36:00,73.8,62.1,30.16,East,90,3.0,5.0,67,0.00,,,-99.99,Weather View 32 v60,2013-06-21 14:36:00,
2013-06-21 10:45:00,74.6,62.9,30.16,East,90,2.0,5.0,67,0.00,,,-99.99,Weather View 32 v60,2013-06-21 14:45:00,
2013-06-21 10:54:00,75.4,61.9,30.16,ESE,113,1.0,5.0,63,0.00,,,-99.99,Weather View 32 v60,2013-06-21 14:54:00,
2013-06-21 11:00:00,75.9,62.4,30.16,South,180,1.0,5.0,63,0.00,,,-99.99,Weather View 32 v60,2013-06-21 15:00:00,
2013-06-21 11:09:00,77.2,64.0,30.16,SE,135,1.0,5.0,64,0.00,,,-99.99,Weather View 32 v60,2013-06-21 15:09:00,
2013-06-21 11:15:00,77.7,64.1,30.16,NE,45,2.0,7.0,63,0.00,,,-99.99,Weather View 32 v60,2013-06-21 15:15:00,
2013-06-21 11:25:00,78.3,63.7,30.16,East,90,3.0,7.0,61,0.00,,,-99.99,Weather View 32 v60,2013-06-21 15:25:00,
2013-06-21 11:34:00,78.7,63.6,30.16,SE,135,1.0,7.0,60,0.00,,,-99.99,Weather View 32 v60,2013-06-21 15:34:00,
2013-06-21 11:39:00,79.2,63.6,30.16,NNE,23,1.0,7.0,59,0.00,,,-99.99,Weather View 32 v60,2013-06-21 15:39:00,
2013-06-21 11:45:00,79.4,64.3,30.16,ESE,113,1.0,7.0,60,0.00,,,-99.99,Weather View 32 v60,2013-06-21 15:45:00,
2013-06-21 11:54:00,79.8,63.2,30.15,South,180,2.0,8.0,57,0.00,,,-99.99,Weather View 32 v60,2013-06-21 15:54:00,
2013-06-21 11:59:00,79.9,63.2,30.15,South,180,1.0,8.0,57,0.00,,,-99.99,Weather View 32 v60,2013-06-21 15:59:00,
2013-06-21 12:10:00,80.4,63.2,30.15,South,180,4.0,8.0,56,0.00,,,-99.99,Weather View 32 v60,2013-06-21 16:10:00,
2013-06-21 12:15:00,80.5,62.3,30.15,South,180,1.0,8.0,54,0.00,,,-99.99,Weather View 32 v60,2013-06-21 16:15:00,
2013-06-21 12:24:00,81.0,63.2,30.15,East,90,1.0,8.0,55,0.00,,,-99.99,Weather View 32 v60,2013-06-21 16:24:00,
2013-06-21 12:30:00,81.1,63.3,30.15,East,90,2.0,8.0,55,0.00,,,-99.99,Weather View 32 v60,2013-06-21 16:30:00,
2013-06-21 12:35:00,81.1,62.3,30.15,NNE,23,0.0,8.0,53,0.00,,,-99.99,Weather View 32 v60,2013-06-21 16:35:00,
2013-06-21 12:44:00,81.5,61.6,30.15,South,180,3.0,8.0,51,0.00,,,-99.99,Weather View 32 v60,2013-06-21 16:44:00,
2013-06-21 12:55:00,82.0,63.1,30.15,NE,45,3.0,8.0,53,0.00,,,-99.99,Weather View 32 v60,2013-06-21 16:55:00,
2013-06-21 13:04:00,82.0,60.9,30.14,South,180,0.0,8.0,49,0.00,,,-99.99,Weather View 32 v60,2013-06-21 17:04:00,
2013-06-21 13:09:00,82.1,60.4,30.14,ESE,113,0.0,8.0,48,0.00,,,-99.99,Weather View 32 v60,2013-06-21 17:09:00,
2013-06-21 13:15:00,82.5,62.5,30.14,ESE,113,0.0,8.0,51,0.00,,,-99.99,Weather View 32 v60,2013-06-21 17:15:00,
2013-06-21 13:25:00,82.6,60.3,30.14,ENE,68,0.0,8.0,47,0.00,,,-99.99,Weather View 32 v60,2013-06-21 17:25:00,
2013-06-21 13:45:00,82.7,59.1,30.14,South,180,0.0,8.0,45,0.00,,,-99.99,Weather View 32 v60,2013-06-21 17:45:00,
2013-06-21 13:49:00,82.6,59.6,30.14,ENE,68,2.0,8.0,46,0.00,,,-99.99,Weather View 32 v60,2013-06-21 17:49:00,
2013-06-21 13:55:00,82.2,60.5,30.13,East,90,0.0,7.0,48,0.00,,,-99.99,Weather View 32 v60,2013-06-21 17:55:00,
2013-06-21 14:05:00,82.6,61.4,30.13,East,90,0.0,7.0,49,0.00,,,-99.99,Weather View 32 v60,2013-06-21 18:05:00,
2013-06-21 14:15:00,82.8,59.8,30.13,SSE,158,0.0,7.0,46,0.00,,,-99.99,Weather View 32 v60,2013-06-21 18:15:00,
2013-06-21 14:24:00,83.2,60.2,30.12,South,180,0.0,7.0,46,0.00,,,-99.99,Weather View 32 v60,2013-06-21 18:24:00,
2013-06-21 14:30:00,83.3,60.3,30.12,SE,135,0.0,11.0,46,0.00,,,-99.99,Weather View 32 v60,2013-06-21 18:30:00,
2013-06-21 14:38:00,83.5,60.5,30.12,South,180,0.0,11.0,46,0.00,,,-99.99,Weather View 32 v60,2013-06-21 18:38:00,
2013-06-21 14:40:00,83.5,59.8,30.12,ENE,68,0.0,11.0,45,0.00,,,-99.99,Weather View 32 v60,2013-06-21 18:40:00,
2013-06-21 14:49:00,83.8,60.1,30.12,ENE,68,0.0,11.0,45,0.00,,,-99.99,Weather View 32 v60,2013-06-21 18:49:00,
2013-06-21 14:55:00,83.8,60.1,30.12,South,180,1.0,11.0,45,0.00,,,-99.99,Weather View 32 v60,2013-06-21 18:55:00,
2013-06-21 15:04:00,83.8,60.7,30.12,NNE,23,0.0,11.0,46,0.00,,,-99.99,Weather View 32 v60,2013-06-21 19:04:00,
2013-06-21 15:10:00,83.8,60.1,30.12,NNE,23,0.0,11.0,45,0.00,,,-99.99,Weather View 32 v60,2013-06-21 19:10:00,
2013-06-21 15:20:00,83.7,58.1,30.12,SE,135,4.0,11.0,42,0.00,,,-99.99,Weather View 32 v60,2013-06-21 19:20:00,
2013-06-21 15:30:00,83.8,58.2,30.12,SSE,158,0.0,6.0,42,0.00,,,-99.99,Weather View 32 v60,2013-06-21 19:30:00,
2013-06-21 15:34:00,83.6,57.3,30.12,East,90,0.0,6.0,41,0.00,,,-99.99,Weather View 32 v60,2013-06-21 19:34:00,
2013-06-21 15:40:00,83.4,57.1,30.12,South,180,1.0,6.0,41,0.00,,,-99.99,Weather View 32 v60,2013-06-21 19:40:00,
2013-06-21 15:45:00,83.4,57.1,30.12,NNE,23,2.0,6.0,41,0.00,,,-99.99,Weather View 32 v60,2013-06-21 19:45:00,
2013-06-21 15:54:00,83.3,56.4,30.12,East,90,1.0,7.0,40,0.00,,,-99.99,Weather View 32 v60,2013-06-21 19:54:00,
2013-06-21 16:00:00,83.3,56.4,30.12,East,90,0.0,7.0,40,0.00,,,-99.99,Weather View 32 v60,2013-06-21 20:00:00,
2013-06-21 16:10:00,83.2,57.0,30.11,SSE,158,0.0,7.0,41,0.00,,,-99.99,Weather View 32 v60,2013-06-21 20:10:00,
2013-06-21 16:19:00,83.0,57.5,30.11,East,90,0.0,7.0,42,0.00,,,-99.99,Weather View 32 v60,2013-06-21 20:19:00,
2013-06-21 16:24:00,83.0,57.5,30.11,SSE,158,0.0,7.0,42,0.00,,,-99.99,Weather View 32 v60,2013-06-21 20:24:00,
2013-06-21 16:30:00,82.8,57.3,30.11,South,180,0.0,7.0,42,0.00,,,-99.99,Weather View 32 v60,2013-06-21 20:30:00,
2013-06-21 16:39:00,82.7,57.8,30.11,NE,45,0.0,7.0,43,0.00,,,-99.99,Weather View 32 v60,2013-06-21 20:39:00,
2013-06-21 16:55:00,82.2,56.1,30.10,South,180,0.0,7.0,41,0.00,,,-99.99,Weather View 32 v60,2013-06-21 20:55:00,
2013-06-21 17:05:00,82.0,56.6,30.10,East,90,0.0,6.0,42,0.00,,,-99.99,Weather View 32 v60,2013-06-21 21:05:00,
2013-06-21 17:15:00,81.8,55.7,30.10,East,90,1.0,6.0,41,0.00,,,-99.99,Weather View 32 v60,2013-06-21 21:15:00,
2013-06-21 17:24:00,81.5,56.8,30.10,NNE,23,0.0,6.0,43,0.00,,,-99.99,Weather View 32 v60,2013-06-21 21:24:00,
2013-06-21 17:30:00,81.3,57.2,30.10,NNE,23,0.0,6.0,44,0.00,,,-99.99,Weather View 32 v60,2013-06-21 21:30:00,
2013-06-21 17:40:00,80.8,55.5,30.10,NNE,23,0.0,6.0,42,0.00,,,-99.99,Weather View 32 v60,2013-06-21 21:40:00,
2013-06-21 17:50:00,80.5,55.2,30.10,NNE,23,0.0,5.0,42,0.00,,,-99.99,Weather View 32 v60,2013-06-21 21:50:00,
2013-06-21 18:00:00,80.2,54.9,30.10,South,180,0.0,5.0,42,0.00,,,-99.99,Weather View 32 v60,2013-06-21 22:00:00,
2013-06-21 18:09:00,79.9,56.6,30.10,South,180,0.0,5.0,45,0.00,,,-99.99,Weather View 32 v60,2013-06-21 22:09:00,
2013-06-21 18:15:00,79.7,57.6,30.10,NNE,23,0.0,5.0,47,0.00,,,-99.99,Weather View 32 v60,2013-06-21 22:15:00,
2013-06-21 18:25:00,79.3,57.3,30.10,NNE,23,0.0,3.0,47,0.00,,,-99.99,Weather View 32 v60,2013-06-21 22:25:00,
2013-06-21 18:34:00,78.9,58.1,30.10,ESE,113,0.0,3.0,49,0.00,,,-99.99,Weather View 32 v60,2013-06-21 22:34:00,
2013-06-21 18:40:00,78.7,57.3,30.10,ESE,113,0.0,3.0,48,0.00,,,-99.99,Weather View 32 v60,2013-06-21 22:40:00,
2013-06-21 18:45:00,78.5,58.2,30.10,East,90,0.0,2.0,50,0.00,,,-99.99,Weather View 32 v60,2013-06-21 22:45:00,
2013-06-21 18:55:00,78.0,59.4,30.10,East,90,0.0,2.0,53,0.00,,,-99.99,Weather View 32 v60,2013-06-21 22:55:00,
2013-06-21 19:04:00,77.5,59.5,30.11,East,90,0.0,1.0,54,0.00,,,-99.99,Weather View 32 v60,2013-06-21 23:04:00,
2013-06-21 19:10:00,77.3,59.3,30.11,East,90,0.0,1.0,54,0.00,,,-99.99,Weather View 32 v60,2013-06-21 23:10:00,
2013-06-21 19:15:00,77.0,59.0,30.11,East,90,0.0,1.0,54,0.00,,,-99.99,Weather View 32 v60,2013-06-21 23:15:00,
2013-06-21 19:25:00,76.5,59.6,30.11,East,90,0.0,1.0,56,0.00,,,-99.99,Weather View 32 v60,2013-06-21 23:25:00,
2013-06-21 19:35:00,75.9,59.5,30.11,East,90,0.0,1.0,57,0.00,,,-99.99,Weather View 32 v60,2013-06-21 23:35:00,
2013-06-21 19:41:00,75.7,59.3,30.11,East,90,0.0,1.0,57,0.00,,,-99.99,Weather View 32 v60,2013-06-21 23:41:00,
2013-06-21 19:49:00,75.1,59.7,30.11,East,90,0.0,1.0,59,0.00,,,-99.99,Weather View 32 v60,2013-06-21 23:49:00,
2013-06-21 19:55:00,74.8,59.0,30.11,East,90,0.0,1.0,58,0.00,,,-99.99,Weather View 32 v60,2013-06-21 23:55:00,
2013-06-21 20:04:00,74.2,59.4,30.12,East,90,0.0,1.0,60,0.00,,,-99.99,Weather View 32 v60,2013-06-22 00:04:00,
2013-06-21 20:10:00,73.9,60.0,30.12,East,90,0.0,1.0,62,0.00,,,-99.99,Weather View 32 v60,2013-06-22 00:10:00,
2013-06-21 20:15:00,73.7,59.8,30.11,East,90,0.0,1.0,62,0.00,,,-99.99,Weather View 32 v60,2013-06-22 00:15:00,
2013-06-21 20:20:00,73.4,58.6,30.11,East,90,0.0,1.0,60,0.00,,,-99.99,Weather View 32 v60,2013-06-22 00:20:00,
2013-06-21 20:30:00,72.8,58.1,30.11,East,90,0.0,0.0,60,0.00,,,-99.99,Weather View 32 v60,2013-06-22 00:30:00,
2013-06-21 20:40:00,72.2,58.4,30.11,East,90,0.0,0.0,62,0.00,,,-99.99,Weather View 32 v60,2013-06-22 00:40:00,
2013-06-21 20:49:00,71.6,59.2,30.11,East,90,0.0,3.0,65,0.00,,,-99.99,Weather View 32 v60,2013-06-22 00:49:00,
2013-06-21 20:55:00,71.2,59.2,30.11,East,90,0.0,3.0,66,0.00,,,-99.99,Weather View 32 v60,2013-06-22 00:55:00,
2013-06-21 21:00:00,70.9,58.9,30.11,East,90,0.0,3.0,66,0.00,,,-99.99,Weather View 32 v60,2013-06-22 01:00:00,
2013-06-21 21:09:00,70.4,59.3,30.11,East,90,0.0,3.0,68,0.00,,,-99.99,Weather View 32 v60,2013-06-22 01:09:00,
2013-06-21 21:15:00,70.2,59.1,30.12,East,90,0.0,3.0,68,0.00,,,-99.99,Weather View 32 v60,2013-06-22 01:15:00,
2013-06-21 21:25:00,69.9,60.0,30.12,East,90,0.0,3.0,71,0.00,,,-99.99,Weather View 32 v60,2013-06-22 01:25:00,
2013-06-21 21:35:00,69.6,60.1,30.12,East,90,0.0,3.0,72,0.00,,,-99.99,Weather View 32 v60,2013-06-22 01:35:00,
2013-06-21 21:42:00,69.6,60.5,30.13,East,90,0.0,3.0,73,0.00,,,-99.99,Weather View 32 v60,2013-06-22 01:42:00,
2013-06-21 21:49:00,69.4,61.1,30.13,East,90,0.0,1.0,75,0.00,,,-99.99,Weather View 32 v60,2013-06-22 01:49:00,
2013-06-21 21:55:00,69.3,61.4,30.13,East,90,0.0,0.0,76,0.00,,,-99.99,Weather View 32 v60,2013-06-22 01:55:00,
2013-06-21 22:04:00,69.1,61.6,30.13,East,90,0.0,0.0,77,0.00,,,-99.99,Weather View 32 v60,2013-06-22 02:04:00,
2013-06-21 22:10:00,69.0,61.1,30.13,East,90,0.0,0.0,76,0.00,,,-99.99,Weather View 32 v60,2013-06-22 02:10:00,
2013-06-21 22:15:00,68.9,61.0,30.12,East,90,0.0,0.0,76,0.00,,,-99.99,Weather View 32 v60,2013-06-22 02:15:00,
2013-06-21 22:25:00,68.8,61.3,30.13,East,90,0.0,0.0,77,0.00,,,-99.99,Weather View 32 v60,2013-06-22 02:25:00,
2013-06-21 22:35:00,68.7,61.5,30.12,East,90,0.0,0.0,78,0.00,,,-99.99,Weather View 32 v60,2013-06-22 02:35:00,
2013-06-21 22:42:00,68.7,61.5,30.12,East,90,0.0,0.0,78,0.00,,,-99.99,Weather View 32 v60,2013-06-22 02:42:00,
2013-06-21 22:50:00,68.6,61.4,30.12,East,90,0.0,1.0,78,0.00,,,-99.99,Weather View 32 v60,2013-06-22 02:50:00,
2013-06-21 22:55:00,68.5,61.7,30.12,East,90,0.0,1.0,79,0.00,,,-99.99,Weather View 32 v60,2013-06-22 02:55:00,
2013-06-21 23:05:00,68.3,61.9,30.12,East,90,0.0,1.0,80,0.00,,,-99.99,Weather View 32 v60,2013-06-22 03:05:00,
2013-06-21 23:10:00,68.1,61.7,30.12,East,90,0.0,1.0,80,0.00,,,-99.99,Weather View 32 v60,2013-06-22 03:10:00,
2013-06-21 23:15:00,68.0,61.6,30.12,East,90,0.0,1.0,80,0.00,,,-99.99,Weather View 32 v60,2013-06-22 03:15:00,
2013-06-21 23:24:00,67.8,61.7,30.13,East,90,0.0,1.0,81,0.00,,,-99.99,Weather View 32 v60,2013-06-22 03:24:00,
2013-06-21 23:30:00,67.6,61.5,30.13,East,90,0.0,1.0,81,0.00,,,-99.99,Weather View 32 v60,2013-06-22 03:30:00,
2013-06-21 23:40:00,67.5,61.8,30.12,East,90,0.0,1.0,82,0.00,,,-99.99,Weather View 32 v60,2013-06-22 03:40:00,
2013-06-21 23:45:00,67.4,61.7,30.12,East,90,0.0,1.0,82,0.00,,,-99.99,Weather View 32 v60,2013-06-22 03:45:00,
2013-06-21 23:55:00,67.2,61.5,30.12,East,90,0.0,1.0,82,0.00,,,-99.99,Weather View 32 v60,2013-06-22 03:55:00,